sensor_id;sensor_type;location;lat;lon;timestamp;pressure;altitude;pressure_sealevel;temperature
15062;BMP180;7630;50.306;8.566;2023-04-29T00:02:22;97456.00;;;14.60
15062;BMP180;7630;50.306;8.566;2023-04-29T00:06:23;97467.00;;;14.50
15062;BMP180;7630;50.306;8.566;2023-04-29T00:10:24;97478.00;;;14.70
15062;BMP180;7630;50.306;8.566;2023-04-29T00:14:26;97468.00;;;14.20
15062;BMP180;7630;50.306;8.566;2023-04-29T00:18:27;97480.00;;;14.60
15062;BMP180;7630;50.306;8.566;2023-04-29T00:22:28;97486.00;;;14.70
15062;BMP180;7630;50.306;8.566;2023-04-29T00:26:29;97474.00;;;14.70
15062;BMP180;7630;50.306;8.566;2023-04-29T00:30:31;97483.00;;;14.70
15062;BMP180;7630;50.306;8.566;2023-04-29T00:34:34;97474.00;;;13.70
15062;BMP180;7630;50.306;8.566;2023-04-29T00:38:35;97473.00;;;14.10
15062;BMP180;7630;50.306;8.566;2023-04-29T00:42:36;97477.00;;;13.70
15062;BMP180;7630;50.306;8.566;2023-04-29T00:46:38;97476.00;;;13.60
15062;BMP180;7630;50.306;8.566;2023-04-29T00:50:40;97484.00;;;13.90
15062;BMP180;7630;50.306;8.566;2023-04-29T00:54:42;97475.00;;;13.40
15062;BMP180;7630;50.306;8.566;2023-04-29T00:58:43;97470.00;;;13.60
15062;BMP180;7630;50.306;8.566;2023-04-29T01:02:47;97473.00;;;13.40
15062;BMP180;7630;50.306;8.566;2023-04-29T01:07:15;97481.00;;;13.60
15062;BMP180;7630;50.306;8.566;2023-04-29T01:11:20;97486.00;;;13.90
15062;BMP180;7630;50.306;8.566;2023-04-29T01:15:37;97487.00;;;13.80
15062;BMP180;7630;50.306;8.566;2023-04-29T01:19:51;97480.00;;;14.60
15062;BMP180;7630;50.306;8.566;2023-04-29T01:23:54;97485.00;;;13.60
15062;BMP180;7630;50.306;8.566;2023-04-29T01:32:28;97480.00;;;14.20
15062;BMP180;7630;50.306;8.566;2023-04-29T01:36:31;97491.00;;;15.00
15062;BMP180;7630;50.306;8.566;2023-04-29T01:40:52;97483.00;;;15.00
15062;BMP180;7630;50.306;8.566;2023-04-29T01:44:57;97480.00;;;14.50
15062;BMP180;7630;50.306;8.566;2023-04-29T01:49:00;97486.00;;;14.60
15062;BMP180;7630;50.306;8.566;2023-04-29T01:53:01;97488.00;;;14.40
15062;BMP180;7630;50.306;8.566;2023-04-29T01:57:03;97490.00;;;14.30
15062;BMP180;7630;50.306;8.566;2023-04-29T02:01:04;97493.00;;;13.20
15062;BMP180;7630;50.306;8.566;2023-04-29T02:05:07;97493.00;;;13.70
15062;BMP180;7630;50.306;8.566;2023-04-29T02:09:09;97499.00;;;14.00
15062;BMP180;7630;50.306;8.566;2023-04-29T02:13:10;97496.00;;;14.00
15062;BMP180;7630;50.306;8.566;2023-04-29T02:17:13;97488.00;;;13.40
15062;BMP180;7630;50.306;8.566;2023-04-29T02:21:14;97497.00;;;13.30
15062;BMP180;7630;50.306;8.566;2023-04-29T02:25:15;97501.00;;;13.60
15062;BMP180;7630;50.306;8.566;2023-04-29T02:29:16;97496.00;;;14.20
15062;BMP180;7630;50.306;8.566;2023-04-29T02:33:17;97503.00;;;14.00
15062;BMP180;7630;50.306;8.566;2023-04-29T02:37:19;97505.00;;;13.70
15062;BMP180;7630;50.306;8.566;2023-04-29T02:41:20;97511.00;;;13.40
15062;BMP180;7630;50.306;8.566;2023-04-29T02:45:21;97510.00;;;13.20
15062;BMP180;7630;50.306;8.566;2023-04-29T02:49:23;97523.00;;;13.00
15062;BMP180;7630;50.306;8.566;2023-04-29T02:53:24;97527.00;;;14.00
15062;BMP180;7630;50.306;8.566;2023-04-29T02:57:25;97526.00;;;13.10
15062;BMP180;7630;50.306;8.566;2023-04-29T03:01:26;97525.00;;;14.00
15062;BMP180;7630;50.306;8.566;2023-04-29T03:05:27;97520.00;;;13.60
15062;BMP180;7630;50.306;8.566;2023-04-29T03:09:28;97521.00;;;14.10
15062;BMP180;7630;50.306;8.566;2023-04-29T03:13:29;97529.00;;;14.40
15062;BMP180;7630;50.306;8.566;2023-04-29T03:17:30;97526.00;;;13.70
15062;BMP180;7630;50.306;8.566;2023-04-29T03:21:31;97526.00;;;13.40
15062;BMP180;7630;50.306;8.566;2023-04-29T03:25:32;97529.00;;;13.90
15062;BMP180;7630;50.306;8.566;2023-04-29T03:29:33;97452.00;;;13.40
15062;BMP180;7630;50.306;8.566;2023-04-29T03:33:34;97529.00;;;12.90
15062;BMP180;7630;50.306;8.566;2023-04-29T03:37:36;97534.00;;;13.40
15062;BMP180;7630;50.306;8.566;2023-04-29T03:41:37;97533.00;;;13.00
15062;BMP180;7630;50.306;8.566;2023-04-29T03:45:38;97533.00;;;12.70
15062;BMP180;7630;50.306;8.566;2023-04-29T03:49:39;97530.00;;;12.80
15062;BMP180;7630;50.306;8.566;2023-04-29T03:53:40;97529.00;;;12.30
15062;BMP180;7630;50.306;8.566;2023-04-29T03:57:42;97527.00;;;11.80
15062;BMP180;7630;50.306;8.566;2023-04-29T04:01:43;97528.00;;;12.10
15062;BMP180;7630;50.306;8.566;2023-04-29T04:05:44;97532.00;;;12.30
15062;BMP180;7630;50.306;8.566;2023-04-29T04:09:45;97538.00;;;11.90
15062;BMP180;7630;50.306;8.566;2023-04-29T04:13:46;97549.00;;;12.50
15062;BMP180;7630;50.306;8.566;2023-04-29T04:17:47;97547.00;;;12.90
15062;BMP180;7630;50.306;8.566;2023-04-29T04:21:48;97549.00;;;12.00
15062;BMP180;7630;50.306;8.566;2023-04-29T04:25:49;97563.00;;;13.10
15062;BMP180;7630;50.306;8.566;2023-04-29T04:29:53;97570.00;;;13.20
15062;BMP180;7630;50.306;8.566;2023-04-29T04:33:54;97569.00;;;13.30
15062;BMP180;7630;50.306;8.566;2023-04-29T04:37:56;97574.00;;;13.00
15062;BMP180;7630;50.306;8.566;2023-04-29T04:41:57;97566.00;;;12.30
15062;BMP180;7630;50.306;8.566;2023-04-29T04:45:58;97572.00;;;12.70
15062;BMP180;7630;50.306;8.566;2023-04-29T04:49:59;97579.00;;;13.00
15062;BMP180;7630;50.306;8.566;2023-04-29T04:54:00;97578.00;;;12.40
15062;BMP180;7630;50.306;8.566;2023-04-29T04:58:01;97585.00;;;12.90
15062;BMP180;7630;50.306;8.566;2023-04-29T05:02:02;97590.00;;;13.00
15062;BMP180;7630;50.306;8.566;2023-04-29T05:06:03;97594.00;;;12.00
15062;BMP180;7630;50.306;8.566;2023-04-29T05:10:05;97606.00;;;12.50
15062;BMP180;7630;50.306;8.566;2023-04-29T05:14:06;97597.00;;;12.80
15062;BMP180;7630;50.306;8.566;2023-04-29T05:18:07;97613.00;;;13.10
15062;BMP180;7630;50.306;8.566;2023-04-29T05:22:08;97605.00;;;12.20
15062;BMP180;7630;50.306;8.566;2023-04-29T05:26:09;97601.00;;;13.20
15062;BMP180;7630;50.306;8.566;2023-04-29T05:30:11;97609.00;;;12.20
15062;BMP180;7630;50.306;8.566;2023-04-29T05:34:12;97616.00;;;12.70
15062;BMP180;7630;50.306;8.566;2023-04-29T05:38:13;97617.00;;;12.50
15062;BMP180;7630;50.306;8.566;2023-04-29T05:42:14;97626.00;;;12.60
15062;BMP180;7630;50.306;8.566;2023-04-29T05:46:16;97634.00;;;13.00
15062;BMP180;7630;50.306;8.566;2023-04-29T05:50:17;97637.00;;;12.40
15062;BMP180;7630;50.306;8.566;2023-04-29T05:54:18;97647.00;;;12.30
15062;BMP180;7630;50.306;8.566;2023-04-29T05:58:19;97650.00;;;13.30
15062;BMP180;7630;50.306;8.566;2023-04-29T06:02:20;97660.00;;;13.30
15062;BMP180;7630;50.306;8.566;2023-04-29T06:06:21;97659.00;;;12.60
15062;BMP180;7630;50.306;8.566;2023-04-29T06:10:22;97666.00;;;12.80
15062;BMP180;7630;50.306;8.566;2023-04-29T06:14:24;97674.00;;;13.20
15062;BMP180;7630;50.306;8.566;2023-04-29T06:18:25;97682.00;;;12.40
15062;BMP180;7630;50.306;8.566;2023-04-29T06:22:26;97692.00;;;13.90
15062;BMP180;7630;50.306;8.566;2023-04-29T06:26:27;97688.00;;;14.10
15062;BMP180;7630;50.306;8.566;2023-04-29T06:30:28;97697.00;;;13.10
15062;BMP180;7630;50.306;8.566;2023-04-29T06:34:29;97710.00;;;13.10
15062;BMP180;7630;50.306;8.566;2023-04-29T06:38:30;97716.00;;;13.30
15062;BMP180;7630;50.306;8.566;2023-04-29T06:42:32;97719.00;;;12.90
15062;BMP180;7630;50.306;8.566;2023-04-29T06:46:33;97732.00;;;13.90
15062;BMP180;7630;50.306;8.566;2023-04-29T06:50:35;97734.00;;;13.00
15062;BMP180;7630;50.306;8.566;2023-04-29T06:54:36;97735.00;;;12.90
15062;BMP180;7630;50.306;8.566;2023-04-29T06:58:37;97731.00;;;12.40
15062;BMP180;7630;50.306;8.566;2023-04-29T07:02:39;97749.00;;;13.00
15062;BMP180;7630;50.306;8.566;2023-04-29T07:06:40;97751.00;;;13.70
15062;BMP180;7630;50.306;8.566;2023-04-29T07:10:41;97752.00;;;12.90
15062;BMP180;7630;50.306;8.566;2023-04-29T07:14:43;97758.00;;;13.20
15062;BMP180;7630;50.306;8.566;2023-04-29T07:18:44;97762.00;;;13.80
15062;BMP180;7630;50.306;8.566;2023-04-29T07:22:45;97757.00;;;13.60
15062;BMP180;7630;50.306;8.566;2023-04-29T07:26:46;97771.00;;;13.90
15062;BMP180;7630;50.306;8.566;2023-04-29T07:30:47;97772.00;;;12.40
15062;BMP180;7630;50.306;8.566;2023-04-29T07:34:49;97781.00;;;12.50
15062;BMP180;7630;50.306;8.566;2023-04-29T07:38:50;97780.00;;;13.70
15062;BMP180;7630;50.306;8.566;2023-04-29T07:42:51;97785.00;;;14.40
15062;BMP180;7630;50.306;8.566;2023-04-29T07:46:52;97784.00;;;13.10
15062;BMP180;7630;50.306;8.566;2023-04-29T07:50:53;97797.00;;;13.50
15062;BMP180;7630;50.306;8.566;2023-04-29T07:54:54;97802.00;;;13.00
15062;BMP180;7630;50.306;8.566;2023-04-29T07:58:56;97800.00;;;13.60
15062;BMP180;7630;50.306;8.566;2023-04-29T08:02:57;97805.00;;;13.90
15062;BMP180;7630;50.306;8.566;2023-04-29T08:06:58;97806.00;;;13.60
15062;BMP180;7630;50.306;8.566;2023-04-29T08:11:00;97818.00;;;14.10
15062;BMP180;7630;50.306;8.566;2023-04-29T08:15:01;97821.00;;;14.10
15062;BMP180;7630;50.306;8.566;2023-04-29T08:19:02;97818.00;;;14.80
15062;BMP180;7630;50.306;8.566;2023-04-29T08:23:03;97827.00;;;14.80
15062;BMP180;7630;50.306;8.566;2023-04-29T08:27:04;97830.00;;;14.70
15062;BMP180;7630;50.306;8.566;2023-04-29T08:31:05;97832.00;;;14.30
15062;BMP180;7630;50.306;8.566;2023-04-29T08:35:08;97830.00;;;14.20
15062;BMP180;7630;50.306;8.566;2023-04-29T08:39:09;97830.00;;;14.50
15062;BMP180;7630;50.306;8.566;2023-04-29T08:43:12;97844.00;;;14.70
15062;BMP180;7630;50.306;8.566;2023-04-29T08:47:14;97854.00;;;13.60
15062;BMP180;7630;50.306;8.566;2023-04-29T08:51:16;97853.00;;;14.60
15062;BMP180;7630;50.306;8.566;2023-04-29T08:55:17;97858.00;;;14.80
15062;BMP180;7630;50.306;8.566;2023-04-29T08:59:18;97855.00;;;13.50
15062;BMP180;7630;50.306;8.566;2023-04-29T09:07:32;97865.00;;;13.60
15062;BMP180;7630;50.306;8.566;2023-04-29T09:11:34;97862.00;;;13.20
15062;BMP180;7630;50.306;8.566;2023-04-29T09:15:36;97873.00;;;13.90
15062;BMP180;7630;50.306;8.566;2023-04-29T09:19:39;97874.00;;;14.20
15062;BMP180;7630;50.306;8.566;2023-04-29T09:23:41;97880.00;;;13.00
15062;BMP180;7630;50.306;8.566;2023-04-29T09:27:42;97884.00;;;13.50
15062;BMP180;7630;50.306;8.566;2023-04-29T09:31:44;97875.00;;;13.50
15062;BMP180;7630;50.306;8.566;2023-04-29T09:35:45;97873.00;;;13.90
15062;BMP180;7630;50.306;8.566;2023-04-29T09:39:48;97892.00;;;15.00
15062;BMP180;7630;50.306;8.566;2023-04-29T09:44:04;97875.00;;;16.30
15062;BMP180;7630;50.306;8.566;2023-04-29T09:48:06;97885.00;;;17.20
15062;BMP180;7630;50.306;8.566;2023-04-29T09:56:13;97882.00;;;16.70
15062;BMP180;7630;50.306;8.566;2023-04-29T10:00:14;97867.00;;;16.40
15062;BMP180;7630;50.306;8.566;2023-04-29T10:04:17;97883.00;;;16.50
15062;BMP180;7630;50.306;8.566;2023-04-29T10:08:18;97878.00;;;15.70
15062;BMP180;7630;50.306;8.566;2023-04-29T10:12:20;97888.00;;;16.90
15062;BMP180;7630;50.306;8.566;2023-04-29T10:20:32;97888.00;;;17.50
15062;BMP180;7630;50.306;8.566;2023-04-29T10:24:35;97897.00;;;18.30
15062;BMP180;7630;50.306;8.566;2023-04-29T10:28:37;97890.00;;;18.70
15062;BMP180;7630;50.306;8.566;2023-04-29T10:32:40;97891.00;;;16.90
15062;BMP180;7630;50.306;8.566;2023-04-29T10:36:45;97899.00;;;18.20
15062;BMP180;7630;50.306;8.566;2023-04-29T10:40:46;97893.00;;;19.30
15062;BMP180;7630;50.306;8.566;2023-04-29T10:45:26;97887.00;;;18.20
15062;BMP180;7630;50.306;8.566;2023-04-29T10:49:33;97884.00;;;17.60
15062;BMP180;7630;50.306;8.566;2023-04-29T10:53:34;97887.00;;;17.50
15062;BMP180;7630;50.306;8.566;2023-04-29T10:57:35;97893.00;;;18.20
15062;BMP180;7630;50.306;8.566;2023-04-29T11:01:41;97903.00;;;17.60
15062;BMP180;7630;50.306;8.566;2023-04-29T11:05:44;97908.00;;;18.10
15062;BMP180;7630;50.306;8.566;2023-04-29T11:09:49;97907.00;;;17.30
15062;BMP180;7630;50.306;8.566;2023-04-29T11:13:51;97906.00;;;16.40
15062;BMP180;7630;50.306;8.566;2023-04-29T11:17:57;97911.00;;;15.30
15062;BMP180;7630;50.306;8.566;2023-04-29T11:22:10;97917.00;;;15.80
15062;BMP180;7630;50.306;8.566;2023-04-29T11:26:11;97922.00;;;15.40
15062;BMP180;7630;50.306;8.566;2023-04-29T11:30:12;97923.00;;;15.80
15062;BMP180;7630;50.306;8.566;2023-04-29T11:34:15;97924.00;;;16.20
15062;BMP180;7630;50.306;8.566;2023-04-29T11:42:27;97931.00;;;17.30
15062;BMP180;7630;50.306;8.566;2023-04-29T11:46:32;97938.00;;;17.20
15062;BMP180;7630;50.306;8.566;2023-04-29T11:50:33;97934.00;;;17.10
15062;BMP180;7630;50.306;8.566;2023-04-29T11:54:36;97942.00;;;17.90
15062;BMP180;7630;50.306;8.566;2023-04-29T11:58:37;97935.00;;;17.50
15062;BMP180;7630;50.306;8.566;2023-04-29T12:02:44;97939.00;;;16.70
15062;BMP180;7630;50.306;8.566;2023-04-29T12:06:50;97938.00;;;16.80
15062;BMP180;7630;50.306;8.566;2023-04-29T12:10:54;97945.00;;;17.00
15062;BMP180;7630;50.306;8.566;2023-04-29T12:14:54;97951.00;;;16.20
15062;BMP180;7630;50.306;8.566;2023-04-29T12:18:56;97947.00;;;16.50
15062;BMP180;7630;50.306;8.566;2023-04-29T12:23:10;97949.00;;;15.70
15062;BMP180;7630;50.306;8.566;2023-04-29T12:27:11;97948.00;;;15.90
15062;BMP180;7630;50.306;8.566;2023-04-29T12:31:14;97953.00;;;15.60
15062;BMP180;7630;50.306;8.566;2023-04-29T12:35:16;97967.00;;;16.30
15062;BMP180;7630;50.306;8.566;2023-04-29T12:39:17;97968.00;;;15.60
15062;BMP180;7630;50.306;8.566;2023-04-29T12:43:19;97965.00;;;16.10
15062;BMP180;7630;50.306;8.566;2023-04-29T12:47:22;97965.00;;;15.90
15062;BMP180;7630;50.306;8.566;2023-04-29T12:51:23;97971.00;;;15.50
15062;BMP180;7630;50.306;8.566;2023-04-29T12:55:24;97977.00;;;16.00
15062;BMP180;7630;50.306;8.566;2023-04-29T12:59:26;97968.00;;;15.50
15062;BMP180;7630;50.306;8.566;2023-04-29T13:03:27;97971.00;;;15.50
15062;BMP180;7630;50.306;8.566;2023-04-29T13:07:28;97977.00;;;15.80
15062;BMP180;7630;50.306;8.566;2023-04-29T13:11:29;97976.00;;;16.00
15062;BMP180;7630;50.306;8.566;2023-04-29T13:15:33;97967.00;;;16.00
15062;BMP180;7630;50.306;8.566;2023-04-29T13:19:34;97975.00;;;16.00
15062;BMP180;7630;50.306;8.566;2023-04-29T13:23:37;97975.00;;;15.90
15062;BMP180;7630;50.306;8.566;2023-04-29T13:27:38;97975.00;;;16.80
15062;BMP180;7630;50.306;8.566;2023-04-29T13:31:39;97969.00;;;15.90
15062;BMP180;7630;50.306;8.566;2023-04-29T13:35:40;97978.00;;;16.00
15062;BMP180;7630;50.306;8.566;2023-04-29T13:39:42;97979.00;;;16.10
15062;BMP180;7630;50.306;8.566;2023-04-29T13:43:45;97978.00;;;16.10
15062;BMP180;7630;50.306;8.566;2023-04-29T13:47:47;97998.00;;;16.30
15062;BMP180;7630;50.306;8.566;2023-04-29T13:51:50;97986.00;;;15.90
15062;BMP180;7630;50.306;8.566;2023-04-29T13:55:53;97988.00;;;16.10
15062;BMP180;7630;50.306;8.566;2023-04-29T13:59:56;97989.00;;;15.70
15062;BMP180;7630;50.306;8.566;2023-04-29T14:03:58;97994.00;;;16.00
15062;BMP180;7630;50.306;8.566;2023-04-29T14:07:59;97989.00;;;16.60
15062;BMP180;7630;50.306;8.566;2023-04-29T14:12:00;97997.00;;;16.20
15062;BMP180;7630;50.306;8.566;2023-04-29T14:16:01;97992.00;;;15.70
15062;BMP180;7630;50.306;8.566;2023-04-29T14:20:05;97995.00;;;16.20
15062;BMP180;7630;50.306;8.566;2023-04-29T14:24:06;97998.00;;;14.80
15062;BMP180;7630;50.306;8.566;2023-04-29T14:28:07;98007.00;;;16.40
15062;BMP180;7630;50.306;8.566;2023-04-29T14:32:09;97997.00;;;15.60
15062;BMP180;7630;50.306;8.566;2023-04-29T14:36:10;98006.00;;;14.90
15062;BMP180;7630;50.306;8.566;2023-04-29T14:40:12;98001.00;;;14.00
15062;BMP180;7630;50.306;8.566;2023-04-29T14:44:13;98008.00;;;13.70
15062;BMP180;7630;50.306;8.566;2023-04-29T14:48:15;98012.00;;;13.70
15062;BMP180;7630;50.306;8.566;2023-04-29T14:52:16;98026.00;;;14.40
15062;BMP180;7630;50.306;8.566;2023-04-29T14:56:17;98036.00;;;14.50
15062;BMP180;7630;50.306;8.566;2023-04-29T15:00:18;98044.00;;;14.10
15062;BMP180;7630;50.306;8.566;2023-04-29T15:04:19;98042.00;;;12.80
15062;BMP180;7630;50.306;8.566;2023-04-29T15:08:20;98037.00;;;13.00
15062;BMP180;7630;50.306;8.566;2023-04-29T15:12:21;98058.00;;;12.40
15062;BMP180;7630;50.306;8.566;2023-04-29T15:16:22;98058.00;;;12.80
15062;BMP180;7630;50.306;8.566;2023-04-29T15:20:24;98061.00;;;12.60
15062;BMP180;7630;50.306;8.566;2023-04-29T15:24:25;98069.00;;;12.50
15062;BMP180;7630;50.306;8.566;2023-04-29T15:28:26;98059.00;;;12.50
15062;BMP180;7630;50.306;8.566;2023-04-29T15:32:27;98076.00;;;12.70
15062;BMP180;7630;50.306;8.566;2023-04-29T15:36:31;98070.00;;;12.40
15062;BMP180;7630;50.306;8.566;2023-04-29T15:40:33;98077.00;;;12.60
15062;BMP180;7630;50.306;8.566;2023-04-29T15:44:34;98081.00;;;12.70
15062;BMP180;7630;50.306;8.566;2023-04-29T15:48:35;98077.00;;;12.50
15062;BMP180;7630;50.306;8.566;2023-04-29T15:52:36;98093.00;;;12.80
15062;BMP180;7630;50.306;8.566;2023-04-29T15:56:37;98087.00;;;13.40
15062;BMP180;7630;50.306;8.566;2023-04-29T16:00:38;98091.00;;;13.00
15062;BMP180;7630;50.306;8.566;2023-04-29T16:04:40;98090.00;;;12.90
15062;BMP180;7630;50.306;8.566;2023-04-29T16:08:41;98092.00;;;13.00
15062;BMP180;7630;50.306;8.566;2023-04-29T16:12:42;98089.00;;;12.20
15062;BMP180;7630;50.306;8.566;2023-04-29T16:16:43;98090.00;;;12.50
15062;BMP180;7630;50.306;8.566;2023-04-29T16:20:44;98089.00;;;13.40
15062;BMP180;7630;50.306;8.566;2023-04-29T16:24:45;98102.00;;;13.20
15062;BMP180;7630;50.306;8.566;2023-04-29T16:28:48;98098.00;;;13.20
15062;BMP180;7630;50.306;8.566;2023-04-29T16:32:49;98098.00;;;13.40
15062;BMP180;7630;50.306;8.566;2023-04-29T16:36:51;98106.00;;;13.80
15062;BMP180;7630;50.306;8.566;2023-04-29T16:40:52;98102.00;;;13.60
15062;BMP180;7630;50.306;8.566;2023-04-29T16:44:53;98101.00;;;12.70
15062;BMP180;7630;50.306;8.566;2023-04-29T16:48:55;98101.00;;;12.90
15062;BMP180;7630;50.306;8.566;2023-04-29T16:52:56;98105.00;;;13.00
15062;BMP180;7630;50.306;8.566;2023-04-29T16:56:57;98106.00;;;13.10
15062;BMP180;7630;50.306;8.566;2023-04-29T17:00:58;98107.00;;;12.70
15062;BMP180;7630;50.306;8.566;2023-04-29T17:04:59;98114.00;;;13.90
15062;BMP180;7630;50.306;8.566;2023-04-29T17:09:00;98118.00;;;13.70
15062;BMP180;7630;50.306;8.566;2023-04-29T17:13:02;98114.00;;;14.30
15062;BMP180;7630;50.306;8.566;2023-04-29T17:17:03;98116.00;;;14.90
15062;BMP180;7630;50.306;8.566;2023-04-29T17:21:04;98122.00;;;14.70
15062;BMP180;7630;50.306;8.566;2023-04-29T17:25:06;98116.00;;;14.10
15062;BMP180;7630;50.306;8.566;2023-04-29T17:29:09;98118.00;;;14.20
15062;BMP180;7630;50.306;8.566;2023-04-29T17:33:12;98129.00;;;14.80
15062;BMP180;7630;50.306;8.566;2023-04-29T17:37:14;98132.00;;;15.10
15062;BMP180;7630;50.306;8.566;2023-04-29T17:41:17;98135.00;;;14.70
15062;BMP180;7630;50.306;8.566;2023-04-29T17:45:18;98137.00;;;15.00
15062;BMP180;7630;50.306;8.566;2023-04-29T17:49:19;98137.00;;;15.00
15062;BMP180;7630;50.306;8.566;2023-04-29T17:53:20;98141.00;;;14.60
15062;BMP180;7630;50.306;8.566;2023-04-29T17:57:21;98143.00;;;15.00
15062;BMP180;7630;50.306;8.566;2023-04-29T18:01:22;98150.00;;;15.50
15062;BMP180;7630;50.306;8.566;2023-04-29T18:05:24;98154.00;;;14.30
15062;BMP180;7630;50.306;8.566;2023-04-29T18:09:25;98153.00;;;14.30
15062;BMP180;7630;50.306;8.566;2023-04-29T18:13:26;98153.00;;;14.50
15062;BMP180;7630;50.306;8.566;2023-04-29T18:17:27;98169.00;;;15.00
15062;BMP180;7630;50.306;8.566;2023-04-29T18:21:29;98177.00;;;15.30
15062;BMP180;7630;50.306;8.566;2023-04-29T18:25:30;98170.00;;;15.20
15062;BMP180;7630;50.306;8.566;2023-04-29T18:29:31;98169.00;;;15.20
15062;BMP180;7630;50.306;8.566;2023-04-29T18:33:32;98170.00;;;15.20
15062;BMP180;7630;50.306;8.566;2023-04-29T18:37:33;98177.00;;;14.80
15062;BMP180;7630;50.306;8.566;2023-04-29T18:41:34;98178.00;;;15.30
15062;BMP180;7630;50.306;8.566;2023-04-29T18:45:37;98184.00;;;15.00
15062;BMP180;7630;50.306;8.566;2023-04-29T18:49:38;98184.00;;;14.40
15062;BMP180;7630;50.306;8.566;2023-04-29T18:53:40;98174.00;;;14.10
15062;BMP180;7630;50.306;8.566;2023-04-29T18:57:41;98169.00;;;14.40
15062;BMP180;7630;50.306;8.566;2023-04-29T19:01:44;98180.00;;;15.00
15062;BMP180;7630;50.306;8.566;2023-04-29T19:05:45;98189.00;;;14.50
15062;BMP180;7630;50.306;8.566;2023-04-29T19:09:47;98186.00;;;14.30
15062;BMP180;7630;50.306;8.566;2023-04-29T19:13:48;98196.00;;;15.00
15062;BMP180;7630;50.306;8.566;2023-04-29T19:17:49;98196.00;;;15.20
15062;BMP180;7630;50.306;8.566;2023-04-29T19:21:51;98196.00;;;15.00
15062;BMP180;7630;50.306;8.566;2023-04-29T19:25:52;98203.00;;;14.20
15062;BMP180;7630;50.306;8.566;2023-04-29T19:29:53;98210.00;;;14.50
15062;BMP180;7630;50.306;8.566;2023-04-29T19:33:54;98221.00;;;14.10
15062;BMP180;7630;50.306;8.566;2023-04-29T19:37:55;98222.00;;;14.00
15062;BMP180;7630;50.306;8.566;2023-04-29T19:41:57;98220.00;;;14.30
15062;BMP180;7630;50.306;8.566;2023-04-29T19:45:58;98227.00;;;15.10
15062;BMP180;7630;50.306;8.566;2023-04-29T19:49:59;98222.00;;;14.90
15062;BMP180;7630;50.306;8.566;2023-04-29T19:54:00;98234.00;;;14.80
15062;BMP180;7630;50.306;8.566;2023-04-29T19:58:02;98224.00;;;14.50
15062;BMP180;7630;50.306;8.566;2023-04-29T20:02:03;98226.00;;;15.20
15062;BMP180;7630;50.306;8.566;2023-04-29T20:06:04;98236.00;;;15.30
15062;BMP180;7630;50.306;8.566;2023-04-29T20:10:07;98232.00;;;14.20
15062;BMP180;7630;50.306;8.566;2023-04-29T20:14:08;98230.00;;;13.80
15062;BMP180;7630;50.306;8.566;2023-04-29T20:22:19;98234.00;;;13.60
15062;BMP180;7630;50.306;8.566;2023-04-29T20:26:20;98238.00;;;13.60
15062;BMP180;7630;50.306;8.566;2023-04-29T20:30:21;98235.00;;;13.90
15062;BMP180;7630;50.306;8.566;2023-04-29T20:34:23;98241.00;;;13.80
15062;BMP180;7630;50.306;8.566;2023-04-29T20:38:24;98239.00;;;13.80
15062;BMP180;7630;50.306;8.566;2023-04-29T20:42:26;98244.00;;;13.60
15062;BMP180;7630;50.306;8.566;2023-04-29T20:46:28;98243.00;;;13.70
15062;BMP180;7630;50.306;8.566;2023-04-29T20:50:29;98244.00;;;14.10
15062;BMP180;7630;50.306;8.566;2023-04-29T20:54:30;98242.00;;;14.00
15062;BMP180;7630;50.306;8.566;2023-04-29T20:58:32;98236.00;;;13.30
15062;BMP180;7630;50.306;8.566;2023-04-29T21:02:33;98240.00;;;13.10
15062;BMP180;7630;50.306;8.566;2023-04-29T21:06:34;98249.00;;;13.30
15062;BMP180;7630;50.306;8.566;2023-04-29T21:10:35;98247.00;;;13.30
15062;BMP180;7630;50.306;8.566;2023-04-29T21:14:36;98247.00;;;12.90
15062;BMP180;7630;50.306;8.566;2023-04-29T21:18:37;98250.00;;;12.40
15062;BMP180;7630;50.306;8.566;2023-04-29T21:22:38;98241.00;;;12.50
15062;BMP180;7630;50.306;8.566;2023-04-29T21:26:39;98250.00;;;12.80
15062;BMP180;7630;50.306;8.566;2023-04-29T21:30:40;98247.00;;;12.90
15062;BMP180;7630;50.306;8.566;2023-04-29T21:34:41;98250.00;;;12.60
15062;BMP180;7630;50.306;8.566;2023-04-29T21:38:42;98245.00;;;12.50
15062;BMP180;7630;50.306;8.566;2023-04-29T21:42:44;98246.00;;;12.70
15062;BMP180;7630;50.306;8.566;2023-04-29T21:46:45;98249.00;;;12.40
15062;BMP180;7630;50.306;8.566;2023-04-29T21:50:47;98252.00;;;12.20
15062;BMP180;7630;50.306;8.566;2023-04-29T21:54:48;98250.00;;;12.40
15062;BMP180;7630;50.306;8.566;2023-04-29T21:58:49;98255.00;;;12.40
15062;BMP180;7630;50.306;8.566;2023-04-29T22:02:50;98248.00;;;12.50
15062;BMP180;7630;50.306;8.566;2023-04-29T22:06:51;98258.00;;;12.80
15062;BMP180;7630;50.306;8.566;2023-04-29T22:10:52;98254.00;;;13.20
15062;BMP180;7630;50.306;8.566;2023-04-29T22:14:53;98259.00;;;13.20
15062;BMP180;7630;50.306;8.566;2023-04-29T22:18:54;98265.00;;;13.40
15062;BMP180;7630;50.306;8.566;2023-04-29T22:22:57;98257.00;;;12.70
15062;BMP180;7630;50.306;8.566;2023-04-29T22:26:59;98274.00;;;12.60
15062;BMP180;7630;50.306;8.566;2023-04-29T22:31:00;98272.00;;;12.30
15062;BMP180;7630;50.306;8.566;2023-04-29T22:35:02;98290.00;;;13.20
15062;BMP180;7630;50.306;8.566;2023-04-29T22:39:03;98284.00;;;12.90
15062;BMP180;7630;50.306;8.566;2023-04-29T22:43:04;98279.00;;;12.30
15062;BMP180;7630;50.306;8.566;2023-04-29T22:47:05;98287.00;;;12.40
15062;BMP180;7630;50.306;8.566;2023-04-29T22:51:06;98286.00;;;12.20
15062;BMP180;7630;50.306;8.566;2023-04-29T22:55:07;98291.00;;;12.50
15062;BMP180;7630;50.306;8.566;2023-04-29T22:59:09;98296.00;;;13.40
15062;BMP180;7630;50.306;8.566;2023-04-29T23:03:10;98287.00;;;14.00
15062;BMP180;7630;50.306;8.566;2023-04-29T23:07:12;98290.00;;;14.80
15062;BMP180;7630;50.306;8.566;2023-04-29T23:11:13;98297.00;;;14.70
15062;BMP180;7630;50.306;8.566;2023-04-29T23:15:14;98289.00;;;14.60
15062;BMP180;7630;50.306;8.566;2023-04-29T23:19:15;98292.00;;;14.90
15062;BMP180;7630;50.306;8.566;2023-04-29T23:23:16;98294.00;;;14.50
15062;BMP180;7630;50.306;8.566;2023-04-29T23:27:17;98310.00;;;15.10
15062;BMP180;7630;50.306;8.566;2023-04-29T23:31:19;98304.00;;;15.30
15062;BMP180;7630;50.306;8.566;2023-04-29T23:35:20;98300.00;;;15.40
15062;BMP180;7630;50.306;8.566;2023-04-29T23:39:21;98306.00;;;15.30
15062;BMP180;7630;50.306;8.566;2023-04-29T23:43:22;98301.00;;;15.10
15062;BMP180;7630;50.306;8.566;2023-04-29T23:47:23;98307.00;;;15.10
15062;BMP180;7630;50.306;8.566;2023-04-29T23:51:24;98307.00;;;14.50
15062;BMP180;7630;50.306;8.566;2023-04-29T23:55:26;98306.00;;;14.80
15062;BMP180;7630;50.306;8.566;2023-04-29T23:59:27;98308.00;;;14.80
